createdAt,value
2022-10-17T00:01:38.846Z,14.60
2022-10-17T00:04:21.907Z,14.07
2022-10-17T00:07:05.108Z,15.13
2022-10-17T00:09:48.116Z,12.23
2022-10-17T00:12:31.105Z,19.27
2022-10-17T00:15:19.111Z,13.50
2022-10-17T00:18:02.496Z,13.70
2022-10-17T00:20:45.481Z,15.33
2022-10-17T00:23:30.433Z,14.53
2022-10-17T00:26:13.833Z,15.17
2022-10-17T00:28:56.935Z,16.37
2022-10-17T00:31:41.427Z,15.67
2022-10-17T00:34:24.999Z,14.90
2022-10-17T00:37:08.024Z,14.93
2022-10-17T00:39:51.199Z,16.10
2022-10-17T00:42:34.239Z,17.67
2022-10-17T00:45:22.504Z,16.50
2022-10-17T00:48:10.698Z,18.93
2022-10-17T00:50:53.898Z,17.70
2022-10-17T00:53:38.313Z,15.63
2022-10-17T00:56:22.497Z,20.17
2022-10-17T01:01:55.416Z,16.07
2022-10-17T01:04:42.567Z,15.83
2022-10-17T01:07:25.621Z,19.47
2022-10-17T01:10:10.223Z,18.03
2022-10-17T01:13:05.610Z,18.87
2022-10-17T01:15:58.735Z,18.90
2022-10-17T01:18:54.332Z,17.13
2022-10-17T01:21:50.972Z,15.70
2022-10-17T01:25:12.583Z,19.53
2022-10-17T01:28:15.733Z,16.80
2022-10-17T01:31:08.312Z,17.27
2022-10-17T01:34:01.689Z,28.73
2022-10-17T01:36:51.812Z,22.00
2022-10-17T01:39:45.630Z,22.40
2022-10-17T01:42:37.763Z,19.53
2022-10-17T01:45:26.781Z,19.83
2022-10-17T01:48:17.553Z,18.70
2022-10-17T01:51:07.924Z,20.70
2022-10-17T01:53:56.210Z,20.73
2022-10-17T01:56:41.735Z,18.10
2022-10-17T01:59:28.301Z,22.40
2022-10-17T02:02:14.030Z,19.43
2022-10-17T02:04:59.007Z,16.93
2022-10-17T02:07:42.539Z,20.43
2022-10-17T02:10:33.882Z,19.07
2022-10-17T02:13:27.193Z,21.07
2022-10-17T02:16:28.557Z,20.43
2022-10-17T02:19:28.902Z,16.67
2022-10-17T02:22:22.098Z,17.10
2022-10-17T02:25:15.429Z,15.93
2022-10-17T02:28:07.681Z,22.77
2022-10-17T02:30:56.840Z,18.93
2022-10-17T02:33:46.097Z,22.27
2022-10-17T02:36:34.055Z,21.73
2022-10-17T02:39:21.415Z,16.20
2022-10-17T02:42:07.744Z,21.70
2022-10-17T02:44:51.251Z,20.23
2022-10-17T02:47:38.181Z,19.23
2022-10-17T02:53:18.690Z,22.87
2022-10-17T02:56:10.057Z,23.30
2022-10-17T02:58:58.629Z,29.17
2022-10-17T03:01:42.238Z,20.10
2022-10-17T03:04:25.319Z,20.03
2022-10-17T03:07:08.335Z,22.50
2022-10-17T03:09:51.343Z,23.13
2022-10-17T03:12:35.882Z,27.80
2022-10-17T03:15:19.006Z,28.10
2022-10-17T03:18:02.078Z,24.37
2022-10-17T03:20:45.091Z,25.23
2022-10-17T03:23:28.081Z,27.90
2022-10-17T03:26:11.277Z,25.30
2022-10-17T03:28:55.722Z,24.43
2022-10-17T03:31:38.784Z,29.20
2022-10-17T03:34:21.933Z,28.60
2022-10-17T03:37:05.312Z,58.83
2022-10-17T03:39:48.274Z,34.40
2022-10-17T03:42:32.869Z,32.17
2022-10-17T03:45:17.438Z,35.77
2022-10-17T03:48:00.552Z,29.37
2022-10-17T03:50:43.561Z,34.87
2022-10-17T03:53:26.569Z,31.43
2022-10-17T03:56:13.999Z,24.30
2022-10-17T03:58:57.433Z,22.23
2022-10-17T04:01:42.004Z,26.47
2022-10-17T04:04:25.130Z,34.03
2022-10-17T04:07:08.113Z,31.37
2022-10-17T04:09:51.119Z,31.00
2022-10-17T04:12:34.137Z,39.07
2022-10-17T04:15:17.171Z,26.90
2022-10-17T04:18:01.590Z,31.30
2022-10-17T04:20:44.630Z,28.23
2022-10-17T04:23:27.631Z,29.60
2022-10-17T04:26:10.706Z,28.23
2022-10-17T04:28:54.075Z,34.67
2022-10-17T04:31:37.098Z,27.33
2022-10-17T04:34:21.496Z,36.77
2022-10-17T04:37:04.490Z,31.50
2022-10-17T04:39:47.550Z,28.50
2022-10-17T04:42:31.081Z,60.27
2022-10-17T04:45:14.578Z,35.30
2022-10-17T04:47:57.598Z,34.90
2022-10-17T04:50:41.969Z,34.70
2022-10-17T04:53:25.561Z,42.23
2022-10-17T04:56:13.138Z,43.27
2022-10-17T04:58:56.169Z,41.27
2022-10-17T05:01:39.182Z,44.17
2022-10-17T05:04:24.714Z,47.73
2022-10-17T05:07:09.493Z,56.77
2022-10-17T05:09:52.527Z,40.47
2022-10-17T05:12:35.556Z,47.43
2022-10-17T05:15:18.720Z,43.33
2022-10-17T05:18:01.775Z,42.60
2022-10-17T05:20:44.763Z,46.03
2022-10-17T05:23:30.922Z,48.57
2022-10-17T05:26:14.725Z,47.27
2022-10-17T05:28:58.799Z,46.00
2022-10-17T05:31:42.064Z,38.37
2022-10-17T05:34:25.654Z,41.57
2022-10-17T05:37:08.642Z,55.53
2022-10-17T05:39:53.081Z,60.17
2022-10-17T05:42:36.261Z,37.17
2022-10-17T05:45:19.261Z,36.83
2022-10-17T05:48:02.274Z,38.20
2022-10-17T05:50:45.318Z,31.43
2022-10-17T05:53:31.083Z,37.47
2022-10-17T05:56:15.523Z,39.60
2022-10-17T05:59:01.083Z,37.67
2022-10-17T06:01:44.296Z,34.27
2022-10-17T06:04:27.929Z,38.83
2022-10-17T06:07:10.960Z,30.90
2022-10-17T06:09:53.972Z,40.30
2022-10-17T06:12:38.354Z,34.63
2022-10-17T06:15:21.363Z,35.33
2022-10-17T06:18:04.321Z,37.57
2022-10-17T06:20:47.407Z,36.50
2022-10-17T06:23:30.446Z,49.13
2022-10-17T06:26:13.521Z,33.27
2022-10-17T06:28:57.935Z,57.87
2022-10-17T06:31:40.785Z,70.37
2022-10-17T06:34:24.165Z,52.97
2022-10-17T06:37:07.233Z,54.57
2022-10-17T06:39:50.209Z,50.27
2022-10-17T06:42:33.778Z,54.90
2022-10-17T06:45:18.314Z,52.57
2022-10-17T06:48:02.942Z,54.80
2022-10-17T06:50:45.961Z,84.13
2022-10-17T06:53:30.258Z,58.23
2022-10-17T06:56:13.246Z,64.23
2022-10-17T06:58:56.301Z,55.13
2022-10-17T07:01:43.181Z,42.37
2022-10-17T07:04:29.222Z,42.43
2022-10-17T07:07:12.255Z,46.37
2022-10-17T07:09:55.253Z,49.97
2022-10-17T07:12:38.272Z,43.47
2022-10-17T07:15:21.301Z,41.03
2022-10-17T07:18:06.013Z,30.00
2022-10-17T07:20:54.914Z,34.80
2022-10-17T07:23:39.889Z,37.80
2022-10-17T07:26:22.971Z,38.33
2022-10-17T07:29:06.606Z,43.57
2022-10-17T07:31:50.349Z,39.37
2022-10-17T07:34:34.728Z,26.13
2022-10-17T07:37:17.751Z,23.27
2022-10-17T07:40:00.811Z,28.50
2022-10-17T07:42:43.776Z,48.57
2022-10-17T07:45:27.743Z,29.73
2022-10-17T07:48:10.772Z,36.87
2022-10-17T07:50:55.182Z,28.37
2022-10-17T07:53:38.930Z,28.43
2022-10-17T07:56:24.725Z,29.77
2022-10-17T07:59:09.375Z,28.13
2022-10-17T08:01:52.881Z,35.70
2022-10-17T08:04:36.876Z,24.93
2022-10-17T08:07:26.828Z,33.37
2022-10-17T08:10:13.847Z,26.07
2022-10-17T08:12:57.619Z,30.50
2022-10-17T08:15:40.683Z,30.07
2022-10-17T08:18:24.009Z,28.90
2022-10-17T08:21:08.430Z,22.80
2022-10-17T08:23:52.950Z,22.00
2022-10-17T08:26:39.285Z,33.53
2022-10-17T08:29:25.637Z,26.33
2022-10-17T08:32:10.212Z,24.83
2022-10-17T08:34:53.731Z,29.80
2022-10-17T08:37:36.743Z,26.93
2022-10-17T08:40:24.273Z,33.60
2022-10-17T08:43:33.321Z,42.83
2022-10-17T08:46:19.355Z,39.60
2022-10-17T08:49:07.576Z,44.90
2022-10-17T08:51:57.170Z,55.43
2022-10-17T08:54:46.079Z,54.57
2022-10-17T08:57:30.856Z,43.20
2022-10-17T09:00:18.581Z,38.67
2022-10-17T09:03:15.502Z,38.83
2022-10-17T09:06:12.087Z,39.57
2022-10-17T09:09:06.644Z,37.30
2022-10-17T09:12:00.140Z,32.60
2022-10-17T09:15:24.284Z,26.77
2022-10-17T09:18:16.674Z,33.97
2022-10-17T09:21:12.544Z,34.10
2022-10-17T09:24:09.003Z,26.60
2022-10-17T09:26:54.011Z,20.20
2022-10-17T09:29:42.922Z,24.10
2022-10-17T09:32:27.290Z,21.03
2022-10-17T09:35:15.499Z,30.27
2022-10-17T09:37:59.861Z,32.67
2022-10-17T09:40:43.083Z,19.77
2022-10-17T09:43:26.702Z,21.37
2022-10-17T09:46:16.812Z,24.93
2022-10-17T09:49:04.612Z,22.53
2022-10-17T09:51:49.956Z,16.70
2022-10-17T09:54:42.684Z,12.57
2022-10-17T09:57:26.417Z,14.30
2022-10-17T10:00:23.059Z,14.67
2022-10-17T10:03:18.873Z,11.03
2022-10-17T10:06:05.392Z,18.77
2022-10-17T10:08:55.240Z,14.30
2022-10-17T10:11:50.309Z,11.20
2022-10-17T10:14:35.722Z,23.67
2022-10-17T10:17:39.598Z,7.77
2022-10-17T10:20:29.014Z,12.40
2022-10-17T10:23:17.461Z,15.02
2022-10-17T10:26:05.328Z,10.60
2022-10-17T10:28:54.953Z,15.95
2022-10-17T10:31:40.844Z,12.55
2022-10-17T10:34:27.785Z,8.73
2022-10-17T10:37:19.733Z,12.50
2022-10-17T10:40:05.100Z,10.60
2022-10-17T10:42:52.749Z,8.27
2022-10-17T10:45:48.736Z,21.10
2022-10-17T10:48:35.651Z,8.27
2022-10-17T10:51:24.397Z,7.75
2022-10-17T10:54:15.930Z,7.82
2022-10-17T10:57:02.957Z,9.13
2022-10-17T10:59:58.325Z,11.68
2022-10-17T11:02:48.714Z,11.77
2022-10-17T11:05:43.201Z,8.75
2022-10-17T11:08:31.274Z,6.97
2022-10-17T11:11:23.869Z,5.78
2022-10-17T11:14:13.853Z,5.97
2022-10-17T11:17:07.281Z,12.23
2022-10-17T11:19:57.504Z,8.57
2022-10-17T11:22:45.578Z,8.95
2022-10-17T11:25:35.321Z,9.82
2022-10-17T11:28:19.873Z,10.13
2022-10-17T11:31:07.282Z,10.77
2022-10-17T11:33:58.851Z,11.00
2022-10-17T11:36:45.305Z,9.40
2022-10-17T11:39:43.257Z,20.00
2022-10-17T11:42:31.855Z,8.70
2022-10-17T11:45:19.530Z,14.83
2022-10-17T11:48:05.894Z,9.90
2022-10-17T11:54:10.151Z,11.80
2022-10-17T11:57:01.484Z,12.70
2022-10-17T11:59:58.813Z,17.57
2022-10-17T12:02:49.555Z,8.97
2022-10-17T12:05:42.751Z,11.80
2022-10-17T12:08:34.777Z,11.60
2022-10-17T12:11:34.673Z,11.80
2022-10-17T12:14:41.922Z,11.00
2022-10-17T12:17:39.012Z,9.87
2022-10-17T12:20:36.698Z,11.10
2022-10-17T12:23:29.357Z,12.80
2022-10-17T12:26:12.353Z,10.67
2022-10-17T12:28:55.552Z,10.93
2022-10-17T12:31:39.029Z,14.43
2022-10-17T12:34:25.440Z,12.83
2022-10-17T12:37:12.227Z,10.97
2022-10-17T12:39:56.644Z,9.47
2022-10-17T12:42:52.026Z,10.07
2022-10-17T12:45:52.830Z,10.90
2022-10-17T12:49:02.571Z,11.83
2022-10-17T12:52:17.677Z,8.80
2022-10-17T12:55:14.665Z,9.60
2022-10-17T12:58:01.330Z,15.40
2022-10-17T13:01:11.592Z,11.40
2022-10-17T13:03:56.076Z,11.53
2022-10-17T13:06:46.246Z,8.47
2022-10-17T13:09:31.420Z,10.43
2022-10-17T13:12:21.434Z,8.83
2022-10-17T13:15:07.970Z,12.40
2022-10-17T13:17:59.455Z,12.27
2022-10-17T13:20:42.661Z,12.23
2022-10-17T13:23:26.408Z,9.97
2022-10-17T13:26:16.516Z,15.67
2022-10-17T13:29:05.926Z,12.73
2022-10-17T13:31:54.850Z,11.43
2022-10-17T13:34:37.878Z,11.97
2022-10-17T13:37:20.986Z,8.30
2022-10-17T13:40:30.715Z,10.83
2022-10-17T13:43:17.665Z,11.17
2022-10-17T13:46:25.307Z,12.13
2022-10-17T13:49:17.986Z,12.00
2022-10-17T13:52:02.974Z,9.03
2022-10-17T13:54:48.909Z,8.63
2022-10-17T13:57:33.401Z,10.97
2022-10-17T14:00:22.972Z,7.43
2022-10-17T14:03:07.587Z,12.50
2022-10-17T14:08:59.295Z,13.00
2022-10-17T14:11:44.250Z,17.10
2022-10-17T14:14:28.130Z,15.17
2022-10-17T14:17:15.555Z,15.57
2022-10-17T14:23:22.325Z,14.33
2022-10-17T14:26:15.489Z,67.93
2022-10-17T14:29:07.525Z,17.80
2022-10-17T14:31:53.571Z,22.40
2022-10-17T14:34:38.514Z,27.27
2022-10-17T14:37:33.404Z,15.03
2022-10-17T14:40:18.779Z,18.03
2022-10-17T14:43:07.491Z,13.63
2022-10-17T14:45:50.725Z,12.77
2022-10-17T14:48:34.553Z,15.00
2022-10-17T14:51:19.068Z,16.90
2022-10-17T14:54:18.927Z,13.50
2022-10-17T14:57:15.912Z,21.47
2022-10-17T14:59:59.368Z,14.87
2022-10-17T15:02:42.373Z,16.03
2022-10-17T15:05:25.415Z,18.63
2022-10-17T15:08:14.749Z,18.40
2022-10-17T15:10:59.151Z,17.60
2022-10-17T15:13:45.585Z,33.00
2022-10-17T15:16:32.793Z,20.13
2022-10-17T15:19:15.798Z,28.37
2022-10-17T15:21:58.817Z,18.53
2022-10-17T15:24:42.767Z,20.87
2022-10-17T15:27:29.749Z,26.47
2022-10-17T15:30:21.774Z,21.53
2022-10-17T15:33:05.690Z,26.80
2022-10-17T15:35:49.056Z,18.37
2022-10-17T15:38:32.068Z,28.93
2022-10-17T15:41:15.473Z,20.90
2022-10-17T15:44:00.279Z,21.40
2022-10-17T15:46:44.391Z,29.90
2022-10-17T15:49:27.386Z,27.30
2022-10-17T15:52:10.483Z,19.27
2022-10-17T15:54:53.758Z,15.00
2022-10-17T15:57:41.479Z,54.97
2022-10-17T16:00:26.052Z,34.30
2022-10-17T16:03:09.085Z,25.80
2022-10-17T16:05:52.111Z,21.90
2022-10-17T16:08:35.163Z,32.47
2022-10-17T16:11:20.828Z,26.83
2022-10-17T16:14:06.322Z,38.80
2022-10-17T16:16:51.047Z,35.53
2022-10-17T16:19:34.055Z,39.30
2022-10-17T16:22:25.981Z,30.80
2022-10-17T16:25:19.534Z,31.90
2022-10-17T16:28:03.428Z,29.13
2022-10-17T16:30:46.541Z,29.60
2022-10-17T16:33:31.726Z,24.33
2022-10-17T16:36:15.124Z,25.83
2022-10-17T16:38:58.110Z,27.57
2022-10-17T16:41:41.182Z,30.13
2022-10-17T16:44:24.197Z,35.93
2022-10-17T16:47:07.174Z,34.13
2022-10-17T16:49:51.579Z,27.83
2022-10-17T16:52:34.617Z,24.03
2022-10-17T16:55:19.315Z,27.57
2022-10-17T16:58:02.651Z,29.07
2022-10-17T17:00:45.731Z,22.43
2022-10-17T17:03:28.845Z,20.93
2022-10-17T17:06:16.293Z,23.90
2022-10-17T17:08:59.392Z,27.20
2022-10-17T17:11:42.377Z,21.40
2022-10-17T17:14:25.377Z,14.93
2022-10-17T17:17:15.360Z,26.27
2022-10-17T17:20:08.319Z,17.20
2022-10-17T17:22:52.879Z,19.10
2022-10-17T17:25:36.174Z,24.47
2022-10-17T17:28:19.167Z,16.53
2022-10-17T17:31:02.750Z,17.60
2022-10-17T17:33:47.113Z,16.33
2022-10-17T17:36:32.916Z,18.33
2022-10-17T17:39:17.378Z,18.53
2022-10-17T17:42:00.459Z,21.43
2022-10-17T17:44:43.430Z,22.17
2022-10-17T17:47:30.253Z,23.60
2022-10-17T17:50:13.484Z,24.33
2022-10-17T17:52:56.542Z,22.23
2022-10-17T17:55:41.232Z,18.83
2022-10-17T17:58:24.244Z,21.80
2022-10-17T18:01:14.293Z,18.57
2022-10-17T18:04:00.087Z,17.53
2022-10-17T18:06:43.164Z,19.67
2022-10-17T18:09:26.167Z,17.87
2022-10-17T18:12:10.593Z,18.37
2022-10-17T18:14:53.722Z,23.80
2022-10-17T18:17:37.860Z,15.50
2022-10-17T18:20:20.940Z,19.40
2022-10-17T18:23:04.331Z,16.97
2022-10-17T18:25:54.835Z,15.33
2022-10-17T18:31:28.628Z,21.57
2022-10-17T18:34:11.745Z,22.03
2022-10-17T18:36:54.938Z,15.93
2022-10-17T18:39:37.951Z,16.83
2022-10-17T18:42:20.938Z,19.37
2022-10-17T18:45:06.458Z,16.57
2022-10-17T18:47:52.648Z,20.37
2022-10-17T18:50:35.688Z,14.87
2022-10-17T18:53:18.701Z,12.63
2022-10-17T18:56:03.352Z,14.77
2022-10-17T18:58:46.927Z,15.93
2022-10-17T19:01:31.519Z,17.03
2022-10-17T19:04:14.908Z,15.43
2022-10-17T19:06:57.945Z,13.57
2022-10-17T19:09:40.957Z,15.63
2022-10-17T19:12:23.957Z,14.77
2022-10-17T19:15:07.577Z,13.47
2022-10-17T19:17:52.071Z,14.03
2022-10-17T19:20:35.094Z,13.73
2022-10-17T19:23:18.109Z,13.80
2022-10-17T19:26:03.921Z,18.60
2022-10-17T19:28:47.771Z,18.37
2022-10-17T19:31:32.958Z,15.13
2022-10-17T19:34:18.075Z,12.10
2022-10-17T19:37:01.111Z,14.77
2022-10-17T19:39:44.161Z,19.23
2022-10-17T19:42:27.301Z,13.33
2022-10-17T19:45:11.140Z,14.63
2022-10-17T19:47:54.214Z,15.33
2022-10-17T19:50:41.269Z,15.97
2022-10-17T19:53:25.265Z,15.30
2022-10-17T19:56:09.559Z,15.13
2022-10-17T19:58:54.066Z,11.10
2022-10-17T20:01:38.996Z,19.33
2022-10-17T20:04:24.087Z,13.90
2022-10-17T20:07:09.797Z,14.57
2022-10-17T20:09:52.818Z,14.30
2022-10-17T20:12:35.907Z,17.17
2022-10-17T20:15:19.027Z,16.77
2022-10-17T20:18:02.287Z,17.87
2022-10-17T20:20:45.391Z,15.20
2022-10-17T20:23:29.818Z,16.53
2022-10-17T20:26:33.224Z,12.50
2022-10-17T20:29:23.651Z,15.27
2022-10-17T20:32:07.011Z,21.80
2022-10-17T20:34:50.073Z,17.50
2022-10-17T20:37:39.891Z,16.03
2022-10-17T20:40:35.577Z,14.90
2022-10-17T20:43:18.938Z,10.30
2022-10-17T20:46:15.561Z,13.23
2022-10-17T20:49:06.393Z,15.13
2022-10-17T20:51:49.396Z,10.63
2022-10-17T20:54:32.483Z,14.83
2022-10-17T20:57:16.850Z,15.80
2022-10-17T20:59:59.951Z,12.93
2022-10-17T21:02:42.984Z,16.33
2022-10-17T21:05:26.197Z,11.43
2022-10-17T21:08:09.466Z,11.40
2022-10-17T21:10:52.477Z,11.70
2022-10-17T21:13:36.946Z,10.97
2022-10-17T21:16:20.417Z,14.63
2022-10-17T21:19:04.582Z,13.53
2022-10-17T21:21:48.075Z,12.77
2022-10-17T21:24:32.236Z,17.13
2022-10-17T21:27:16.989Z,12.27
2022-10-17T21:30:01.486Z,14.30
2022-10-17T21:32:51.689Z,13.93
2022-10-17T21:35:35.063Z,11.47
2022-10-17T21:38:18.103Z,11.33
2022-10-17T21:41:01.061Z,10.83
2022-10-17T21:43:44.685Z,15.67
2022-10-17T21:46:29.971Z,11.27
2022-10-17T21:49:14.608Z,12.73
2022-10-17T21:51:58.377Z,12.47
2022-10-17T21:54:41.363Z,11.07
2022-10-17T21:57:24.379Z,13.27
2022-10-17T22:00:08.243Z,14.90
2022-10-17T22:02:52.701Z,19.27
2022-10-17T22:05:35.833Z,12.70
2022-10-17T22:08:18.858Z,11.53
2022-10-17T22:11:07.240Z,10.80
2022-10-17T22:13:55.019Z,11.43
2022-10-17T22:16:39.669Z,10.90
2022-10-17T22:19:25.919Z,11.60
2022-10-17T22:22:08.978Z,12.10
2022-10-17T22:24:52.050Z,11.67
2022-10-17T22:27:35.049Z,15.37
2022-10-17T22:30:18.540Z,14.77
2022-10-17T22:33:01.532Z,15.17
2022-10-17T22:35:46.555Z,11.00
2022-10-17T22:38:29.913Z,13.83
2022-10-17T22:41:12.926Z,13.03
2022-10-17T22:43:55.931Z,16.50
2022-10-17T22:46:38.962Z,13.30
2022-10-17T22:49:22.037Z,17.00
2022-10-17T22:52:06.645Z,13.57
2022-10-17T22:54:50.120Z,12.97
2022-10-17T22:57:33.181Z,19.50
2022-10-17T23:00:17.178Z,14.63
2022-10-17T23:03:00.257Z,12.80
2022-10-17T23:05:43.353Z,13.67
2022-10-17T23:08:28.664Z,11.53
2022-10-17T23:11:12.175Z,13.53
2022-10-17T23:13:55.165Z,12.30
2022-10-17T23:16:38.169Z,9.93
2022-10-17T23:19:21.121Z,14.37
2022-10-17T23:22:04.726Z,10.77
2022-10-17T23:24:49.081Z,10.73
2022-10-17T23:27:32.092Z,16.10
2022-10-17T23:30:15.072Z,11.93
2022-10-17T23:32:58.056Z,14.20
2022-10-17T23:35:41.705Z,12.30
2022-10-17T23:38:24.697Z,12.13
2022-10-17T23:41:09.326Z,11.40
2022-10-17T23:43:52.379Z,14.10
2022-10-17T23:46:35.352Z,15.97
2022-10-17T23:49:18.309Z,11.73
2022-10-17T23:52:01.314Z,11.30
2022-10-17T23:54:44.403Z,14.67
2022-10-17T23:57:29.199Z,14.33
